CheckWX is a tool to help pilots better visualize weather data.  It is not intended as a substitute for an official pre-flight weather briefing.

09:32:39 UTC

KAZO METAR
Kalamazoo / Battle Creek International Airport
Kalamazoo, Michigan, USA
Current

40 mins ago

KAZO 070853Z AUTO 00000KT 10SM CLR M04/M07 A3037 RMK AO2 SLP294 T10391072 53001
Observed
Dec-7 @ 08:53 UTC
Visibility
10 SM
Flight Rules
VFR
Cloud Levels
  • Clear skies
Temperature
-4°C / 25°F
Dewpoint
-7°C / 19°F
Humidity
80%
Altimeter
30.37" Hg
Pressure
1028.42 hPa
Previous

2 hours ago

KAZO 070753Z AUTO 00000KT 10SM CLR M06/M09 A3036 RMK AO2 SLP291 T10611089
Observed
Dec-7 @ 07:53 UTC
Visibility
10 SM
Flight Rules
VFR
Cloud Levels
  • Clear skies
Temperature
-6°C / 21°F
Dewpoint
-9°C / 16°F
Humidity
80%
Altimeter
30.36" Hg
Pressure
1028.12 hPa
Previous

3 hours ago

KAZO 070653Z AUTO 00000KT 10SM CLR M06/M09 A3035 RMK AO2 SLP290 T10561089
Observed
Dec-7 @ 06:53 UTC
Visibility
10 SM
Flight Rules
VFR
Cloud Levels
  • Clear skies
Temperature
-6°C / 21°F
Dewpoint
-9°C / 16°F
Humidity
80%
Altimeter
30.35" Hg
Pressure
1027.82 hPa